Terminal Aerodrome Forecast
Issued by NWS

Home | Current Version | Previous Version | Graphics & Text | Print | Product List | Glossary On
Versions: 1 2 3 4 5 6 7 8 9 10 11 12 13 14 15 16 17 18 19 20 21 22
000
FTUS43 KGRB 271730
TAFATW
TAF
KATW 271730Z 2718/2818 22006KT P6SM FEW015 SCT030
     FM280000 19003KT P6SM BKN250
      TEMPO 2808/2812 5SM BR
     FM281200 VRB03KT P6SM SCT050 BKN100
     FM281600 22006KT P6SM OVC045 PROB30 2816/2818 4SM -SHRA BR
      OVC035=

USA.gov is the U.S. government's official web portal to all federal, state and local government web resources and services.